createdAt,value
2023-02-23T00:01:46.776Z,26.75
2023-02-23T00:04:13.275Z,28.05
2023-02-23T00:06:39.971Z,29.13
2023-02-23T00:09:11.985Z,27.23
2023-02-23T00:11:38.762Z,24.70
2023-02-23T00:14:05.811Z,30.17
2023-02-23T00:16:32.615Z,27.77
2023-02-23T00:19:02.693Z,27.75
2023-02-23T00:21:35.189Z,22.85
2023-02-23T00:24:08.880Z,28.38
2023-02-23T00:26:37.402Z,25.73
2023-02-23T00:29:07.972Z,28.42
2023-02-23T00:31:35.612Z,25.60
2023-02-23T00:34:03.602Z,27.42
2023-02-23T00:36:35.527Z,29.42
2023-02-23T00:39:19.719Z,24.77
2023-02-23T00:41:47.888Z,24.80
2023-02-23T00:44:17.696Z,25.10
2023-02-23T00:46:45.423Z,25.50
2023-02-23T00:49:13.339Z,31.40
2023-02-23T00:51:39.990Z,24.37
2023-02-23T00:54:07.947Z,28.02
2023-02-23T00:56:34.950Z,23.38
2023-02-23T00:59:01.696Z,25.08
2023-02-23T01:01:28.658Z,26.85
2023-02-23T01:03:55.517Z,27.13
2023-02-23T01:06:22.604Z,24.73
2023-02-23T01:08:52.856Z,28.13
2023-02-23T01:11:22.431Z,23.73
2023-02-23T01:13:51.802Z,25.30
2023-02-23T01:16:21.861Z,27.50
2023-02-23T01:18:48.871Z,27.50
2023-02-23T01:21:16.952Z,29.27
2023-02-23T01:23:44.044Z,25.55
2023-02-23T01:26:23.583Z,19.67
2023-02-23T01:28:55.511Z,27.30
2023-02-23T01:31:23.985Z,26.92
2023-02-23T01:33:58.965Z,26.95
2023-02-23T01:36:27.234Z,29.20
2023-02-23T01:38:57.072Z,27.85
2023-02-23T01:41:26.796Z,28.63
2023-02-23T01:44:05.576Z,31.10
2023-02-23T01:46:39.106Z,27.75
2023-02-23T01:49:09.108Z,27.10
2023-02-23T01:51:42.914Z,23.30
2023-02-23T01:54:15.830Z,30.27
2023-02-23T01:56:45.801Z,24.05
2023-02-23T01:59:15.241Z,26.42
2023-02-23T02:01:43.155Z,26.45
2023-02-23T02:04:16.489Z,28.48
2023-02-23T02:06:45.826Z,27.57
2023-02-23T02:09:19.549Z,28.95
2023-02-23T02:11:54.038Z,29.52
2023-02-23T02:14:29.054Z,22.70
2023-02-23T02:17:16.905Z,29.33
2023-02-23T02:20:33.063Z,24.10
2023-02-23T02:23:27.475Z,26.55
2023-02-23T02:26:16.003Z,26.50
2023-02-23T02:29:07.091Z,23.63
2023-02-23T02:31:59.418Z,24.95
2023-02-23T02:35:00.026Z,27.07
2023-02-23T02:37:38.449Z,25.73
2023-02-23T02:40:16.488Z,28.35
2023-02-23T02:42:55.197Z,26.23
2023-02-23T02:45:37.361Z,27.42
2023-02-23T02:48:11.229Z,26.17
2023-02-23T02:50:46.897Z,27.88
2023-02-23T02:53:22.425Z,26.75
2023-02-23T02:55:50.342Z,28.05
2023-02-23T02:58:17.790Z,28.85
2023-02-23T03:01:07.577Z,27.17
2023-02-23T03:04:11.467Z,24.52
2023-02-23T03:07:14.755Z,31.25
2023-02-23T03:10:14.607Z,26.40
2023-02-23T03:13:35.414Z,28.48
2023-02-23T03:16:32.465Z,27.37
2023-02-23T03:19:26.595Z,30.33
2023-02-23T03:22:21.097Z,23.42
2023-02-23T03:25:12.285Z,29.08
2023-02-23T03:28:10.137Z,28.85
2023-02-23T03:30:58.105Z,23.10
2023-02-23T03:34:06.245Z,28.63
2023-02-23T03:36:55.724Z,24.92
2023-02-23T03:39:51.673Z,25.38
2023-02-23T03:42:43.711Z,30.92
2023-02-23T03:45:33.938Z,27.83
2023-02-23T03:48:22.840Z,27.17
2023-02-23T03:51:13.541Z,28.00
2023-02-23T03:54:09.960Z,28.13
2023-02-23T03:57:02.631Z,28.80
2023-02-23T03:59:53.102Z,26.67
2023-02-23T04:02:40.061Z,21.05
2023-02-23T04:05:32.327Z,27.63
2023-02-23T04:08:21.475Z,29.58
2023-02-23T04:11:11.708Z,27.00
2023-02-23T04:13:40.654Z,28.93
2023-02-23T04:16:09.027Z,25.58
2023-02-23T04:18:38.248Z,32.80
2023-02-23T04:21:06.808Z,30.05
2023-02-23T04:23:34.841Z,31.13
2023-02-23T04:26:02.175Z,29.40
2023-02-23T04:28:29.172Z,26.52
2023-02-23T04:30:55.835Z,31.38
2023-02-23T04:33:25.455Z,26.30
2023-02-23T04:35:53.990Z,29.45
2023-02-23T04:38:22.757Z,33.10
2023-02-23T04:40:49.425Z,31.05
2023-02-23T04:43:16.116Z,30.15
2023-02-23T04:45:44.069Z,35.80
2023-02-23T04:48:10.641Z,29.25
2023-02-23T04:50:37.328Z,31.73
2023-02-23T04:53:04.045Z,27.73
2023-02-23T04:55:31.082Z,32.30
2023-02-23T04:58:00.179Z,28.85
2023-02-23T05:00:29.363Z,26.95
2023-02-23T05:02:57.800Z,28.53
2023-02-23T05:05:24.470Z,31.45
2023-02-23T05:07:51.284Z,31.60
2023-02-23T05:10:17.951Z,30.63
2023-02-23T05:12:44.535Z,29.42
2023-02-23T05:15:11.421Z,28.07
2023-02-23T05:17:41.188Z,33.75
2023-02-23T05:20:11.175Z,33.97
2023-02-23T05:22:37.889Z,30.90
2023-02-23T05:25:06.177Z,31.15
2023-02-23T05:27:33.351Z,26.63
2023-02-23T05:30:00.321Z,31.25
2023-02-23T05:32:27.452Z,32.33
2023-02-23T05:34:54.121Z,30.90
2023-02-23T05:37:20.790Z,28.25
2023-02-23T05:39:47.563Z,30.20
2023-02-23T05:42:14.147Z,27.75
2023-02-23T05:44:40.768Z,34.88
2023-02-23T05:47:07.327Z,30.83
2023-02-23T05:49:33.847Z,33.63
2023-02-23T05:52:00.437Z,31.13
2023-02-23T05:54:27.428Z,30.65
2023-02-23T05:56:54.049Z,34.40
2023-02-23T05:59:20.668Z,41.72
2023-02-23T06:01:47.352Z,31.45
2023-02-23T06:04:14.185Z,37.10
2023-02-23T06:06:41.043Z,32.65
2023-02-23T06:09:07.596Z,35.30
2023-02-23T06:11:34.473Z,35.38
2023-02-23T06:14:01.259Z,34.58
2023-02-23T06:16:28.273Z,35.33
2023-02-23T06:18:54.982Z,34.80
2023-02-23T06:21:21.695Z,36.88
2023-02-23T06:23:48.411Z,35.05
2023-02-23T06:26:15.047Z,34.45
2023-02-23T06:28:41.964Z,30.37
2023-02-23T06:31:08.743Z,33.10
2023-02-23T06:33:35.431Z,37.22
2023-02-23T06:36:02.054Z,34.95
2023-02-23T06:38:29.333Z,36.17
2023-02-23T06:40:55.938Z,30.77
2023-02-23T06:43:23.450Z,35.38
2023-02-23T06:45:50.235Z,30.40
2023-02-23T06:48:17.566Z,32.78
2023-02-23T06:50:44.191Z,31.92
2023-02-23T06:53:10.790Z,32.07
2023-02-23T06:55:37.397Z,32.90
2023-02-23T06:58:07.089Z,33.42
2023-02-23T07:00:33.833Z,36.45
2023-02-23T07:03:00.488Z,32.78
2023-02-23T07:05:27.307Z,34.67
2023-02-23T07:07:53.849Z,31.15
2023-02-23T07:10:20.546Z,31.45
2023-02-23T07:12:47.166Z,33.15
2023-02-23T07:15:17.684Z,35.05
2023-02-23T07:17:45.060Z,31.43
2023-02-23T07:20:12.355Z,33.53
2023-02-23T07:22:39.944Z,31.30
2023-02-23T07:25:08.538Z,30.33
2023-02-23T07:27:35.813Z,30.70
2023-02-23T07:30:05.562Z,27.80
2023-02-23T07:32:32.326Z,29.67
2023-02-23T07:34:58.961Z,31.80
2023-02-23T07:37:25.540Z,33.05
2023-02-23T07:39:52.133Z,27.80
2023-02-23T07:42:18.748Z,34.50
2023-02-23T07:44:45.327Z,31.50
2023-02-23T07:47:13.191Z,27.92
2023-02-23T07:49:39.898Z,29.58
2023-02-23T07:52:06.546Z,31.55
2023-02-23T07:54:33.646Z,31.40
2023-02-23T07:57:00.534Z,27.95
2023-02-23T07:59:27.154Z,28.60
2023-02-23T08:01:53.748Z,29.20
2023-02-23T08:04:20.454Z,32.03
2023-02-23T08:06:47.070Z,32.80
2023-02-23T08:09:14.457Z,29.42
2023-02-23T08:11:41.188Z,26.80
2023-02-23T08:14:07.766Z,28.60
2023-02-23T08:16:34.596Z,31.17
2023-02-23T08:19:01.665Z,32.03
2023-02-23T08:21:29.711Z,26.13
2023-02-23T08:23:57.846Z,27.30
2023-02-23T08:26:25.450Z,28.58
2023-02-23T08:28:53.795Z,30.45
2023-02-23T08:31:24.163Z,24.40
2023-02-23T08:33:52.029Z,32.33
2023-02-23T08:36:20.659Z,25.70
2023-02-23T08:38:47.852Z,32.03
2023-02-23T08:41:14.763Z,29.10
2023-02-23T08:43:41.340Z,27.40
2023-02-23T08:46:07.984Z,30.75
2023-02-23T08:48:35.529Z,28.13
2023-02-23T08:51:02.191Z,28.60
2023-02-23T08:53:29.784Z,29.85
2023-02-23T08:56:01.461Z,28.93
2023-02-23T08:58:30.472Z,27.35
2023-02-23T09:00:58.288Z,27.60
2023-02-23T09:03:28.648Z,25.98
2023-02-23T09:05:56.330Z,26.00
2023-02-23T09:08:23.064Z,27.73
2023-02-23T09:10:49.861Z,28.23
2023-02-23T09:13:17.069Z,28.73
2023-02-23T09:15:43.733Z,30.35
2023-02-23T09:18:13.433Z,29.52
2023-02-23T09:20:44.684Z,29.85
2023-02-23T09:23:12.742Z,29.60
2023-02-23T09:25:43.848Z,27.77
2023-02-23T09:28:15.484Z,28.73
2023-02-23T09:30:43.418Z,28.85
2023-02-23T09:33:11.227Z,25.95
2023-02-23T09:35:38.159Z,25.35
2023-02-23T09:38:07.046Z,27.65
2023-02-23T09:40:53.220Z,36.70
2023-02-23T09:43:39.464Z,26.85
2023-02-23T09:46:19.050Z,31.50
2023-02-23T09:48:46.054Z,30.10
2023-02-23T09:51:19.179Z,29.05
2023-02-23T09:53:51.179Z,32.95
2023-02-23T09:56:29.831Z,26.45
2023-02-23T09:58:56.511Z,30.75
2023-02-23T10:01:29.039Z,29.17
2023-02-23T10:04:04.756Z,27.00
2023-02-23T10:06:31.554Z,30.10
2023-02-23T10:09:29.025Z,30.17
2023-02-23T10:12:04.232Z,28.98
2023-02-23T10:14:39.789Z,26.55
2023-02-23T10:17:23.276Z,26.77
2023-02-23T10:20:00.274Z,29.35
2023-02-23T10:22:28.766Z,25.67
2023-02-23T10:24:55.473Z,29.85
2023-02-23T10:27:29.076Z,28.00
2023-02-23T10:29:58.010Z,28.30
2023-02-23T10:32:29.015Z,25.60
2023-02-23T10:34:56.710Z,24.92
2023-02-23T10:37:25.616Z,25.52
2023-02-23T10:39:53.269Z,29.67
2023-02-23T10:42:28.930Z,24.92
2023-02-23T10:44:56.780Z,27.83
2023-02-23T10:47:27.793Z,28.10
2023-02-23T10:49:56.734Z,27.70
2023-02-23T10:52:41.568Z,29.95
2023-02-23T10:55:23.562Z,25.35
2023-02-23T10:57:53.786Z,45.85
2023-02-23T11:00:21.408Z,26.73
2023-02-23T11:02:48.244Z,25.30
2023-02-23T11:05:47.574Z,28.00
2023-02-23T11:08:22.392Z,29.30
2023-02-23T11:11:15.158Z,26.40
2023-02-23T11:13:45.442Z,29.00
2023-02-23T11:16:37.581Z,28.25
2023-02-23T11:19:07.090Z,32.05
2023-02-23T11:21:38.322Z,28.73
2023-02-23T11:24:23.702Z,25.45
2023-02-23T11:26:52.906Z,26.60
2023-02-23T11:29:50.869Z,26.17
2023-02-23T11:32:33.383Z,27.45
2023-02-23T11:35:21.086Z,27.70
2023-02-23T11:37:48.632Z,26.48
2023-02-23T11:40:21.694Z,26.83
2023-02-23T11:43:16.381Z,26.27
2023-02-23T11:45:50.006Z,27.38
2023-02-23T11:48:23.541Z,26.30
2023-02-23T11:50:51.886Z,26.42
2023-02-23T11:53:28.527Z,29.10
2023-02-23T11:55:59.186Z,24.52
2023-02-23T11:58:39.179Z,26.92
2023-02-23T12:01:14.396Z,25.00
2023-02-23T12:03:48.055Z,27.00
2023-02-23T12:06:33.003Z,28.30
2023-02-23T12:09:12.910Z,26.80
2023-02-23T12:11:42.423Z,25.80
2023-02-23T12:14:22.990Z,23.80
2023-02-23T12:16:58.741Z,28.45
2023-02-23T12:19:31.297Z,25.73
2023-02-23T12:22:07.393Z,25.35
2023-02-23T12:24:54.745Z,26.73
2023-02-23T12:27:29.397Z,26.05
2023-02-23T12:30:03.665Z,27.63
2023-02-23T12:32:51.387Z,28.55
2023-02-23T12:35:58.475Z,24.15
2023-02-23T12:38:44.023Z,25.33
2023-02-23T12:41:13.445Z,23.40
2023-02-23T12:44:00.941Z,28.73
2023-02-23T12:46:37.637Z,26.95
2023-02-23T12:49:12.416Z,25.80
2023-02-23T12:51:54.322Z,27.30
2023-02-23T12:54:20.950Z,25.88
2023-02-23T12:57:13.133Z,25.45
2023-02-23T12:59:55.531Z,28.92
2023-02-23T13:02:33.652Z,26.60
2023-02-23T13:05:12.894Z,26.83
2023-02-23T13:08:07.991Z,28.73
2023-02-23T13:10:57.856Z,28.38
2023-02-23T13:13:42.969Z,25.48
2023-02-23T13:16:31.468Z,26.92
2023-02-23T13:19:19.317Z,25.83
2023-02-23T13:22:08.641Z,28.38
2023-02-23T13:24:38.569Z,31.17
2023-02-23T13:27:20.370Z,30.83
2023-02-23T13:29:49.533Z,27.00
2023-02-23T13:32:18.446Z,28.80
2023-02-23T13:34:52.726Z,25.63
2023-02-23T13:37:23.851Z,29.52
2023-02-23T13:40:15.181Z,28.35
2023-02-23T13:43:01.103Z,24.98
2023-02-23T13:45:38.824Z,29.48
2023-02-23T13:48:11.393Z,28.63
2023-02-23T13:50:52.188Z,29.60
2023-02-23T13:53:27.648Z,27.85
2023-02-23T13:56:00.667Z,29.15
2023-02-23T13:58:30.892Z,27.50
2023-02-23T14:01:15.705Z,28.83
2023-02-23T14:03:47.092Z,31.10
2023-02-23T14:06:17.316Z,32.67
2023-02-23T14:08:46.489Z,30.60
2023-02-23T14:11:29.560Z,30.20
2023-02-23T14:14:03.719Z,27.20
2023-02-23T14:16:31.396Z,27.27
2023-02-23T14:19:03.797Z,32.05
2023-02-23T14:21:33.451Z,29.60
2023-02-23T14:24:23.847Z,34.63
2023-02-23T14:27:10.189Z,34.90
2023-02-23T14:29:44.776Z,35.25
2023-02-23T14:32:11.546Z,37.28
2023-02-23T14:34:53.837Z,37.13
2023-02-23T14:37:38.249Z,37.30
2023-02-23T14:40:20.820Z,36.42
2023-02-23T14:42:50.855Z,37.83
2023-02-23T14:45:29.248Z,35.25
2023-02-23T14:47:59.896Z,37.88
2023-02-23T14:50:32.067Z,40.25
2023-02-23T14:53:01.280Z,39.80
2023-02-23T14:55:30.142Z,36.92
2023-02-23T14:57:58.025Z,37.35
2023-02-23T15:00:28.769Z,37.28
2023-02-23T15:03:02.663Z,40.67
2023-02-23T15:05:41.017Z,38.67
2023-02-23T15:08:12.519Z,37.30
2023-02-23T15:10:44.931Z,38.50
2023-02-23T15:13:30.120Z,38.28
2023-02-23T15:15:58.682Z,41.03
2023-02-23T15:18:32.555Z,42.20
2023-02-23T15:20:59.286Z,37.28
2023-02-23T15:23:26.003Z,39.67
2023-02-23T15:25:52.862Z,35.13
2023-02-23T15:28:25.868Z,39.05
2023-02-23T15:31:00.955Z,34.75
2023-02-23T15:33:30.997Z,38.30
2023-02-23T15:36:19.697Z,38.03
2023-02-23T15:38:49.596Z,40.58
2023-02-23T15:41:34.798Z,37.45
2023-02-23T15:44:15.728Z,37.05
2023-02-23T15:46:45.684Z,41.03
2023-02-23T15:49:17.386Z,42.65
2023-02-23T15:51:51.086Z,44.03
2023-02-23T15:54:34.269Z,44.97
2023-02-23T15:57:17.132Z,46.67
2023-02-23T15:59:48.187Z,45.38
2023-02-23T16:02:19.273Z,48.28
2023-02-23T16:04:53.803Z,49.65
2023-02-23T16:07:24.743Z,49.55
2023-02-23T16:10:22.558Z,51.85
2023-02-23T16:12:52.282Z,51.67
2023-02-23T16:15:28.587Z,52.03
2023-02-23T16:17:58.269Z,52.72
2023-02-23T16:20:45.946Z,46.85
2023-02-23T16:23:37.133Z,49.92
2023-02-23T16:26:12.260Z,48.97
2023-02-23T16:28:44.685Z,48.10
2023-02-23T16:31:13.306Z,53.30
2023-02-23T16:33:48.470Z,53.67
2023-02-23T16:36:34.706Z,51.10
2023-02-23T16:39:03.334Z,50.13
2023-02-23T16:41:35.101Z,53.03
2023-02-23T16:44:04.734Z,50.08
2023-02-23T16:46:55.539Z,50.75
2023-02-23T16:49:23.364Z,52.83
2023-02-23T16:51:51.287Z,57.90
2023-02-23T16:54:18.006Z,52.30
2023-02-23T16:56:46.302Z,55.10
2023-02-23T16:59:16.156Z,57.78
2023-02-23T17:01:46.350Z,57.58
2023-02-23T17:04:20.570Z,60.08
2023-02-23T17:06:52.794Z,66.93
2023-02-23T17:09:19.366Z,63.70
2023-02-23T17:11:47.024Z,70.78
2023-02-23T17:14:27.281Z,72.60
2023-02-23T17:16:54.171Z,68.25
2023-02-23T17:19:24.431Z,75.45
2023-02-23T17:21:52.264Z,74.67
2023-02-23T17:24:19.073Z,70.28
2023-02-23T17:26:45.832Z,79.10
2023-02-23T17:29:12.408Z,72.20
2023-02-23T17:31:40.219Z,72.15
2023-02-23T17:34:07.189Z,73.27
2023-02-23T17:36:33.740Z,78.88
2023-02-23T17:39:00.901Z,77.15
2023-02-23T17:41:27.902Z,76.90
2023-02-23T17:43:54.667Z,79.13
2023-02-23T17:46:21.664Z,78.47
2023-02-23T17:48:48.482Z,84.75
2023-02-23T17:51:16.784Z,71.75
2023-02-23T17:53:44.013Z,80.43
2023-02-23T17:56:11.162Z,80.25
2023-02-23T17:58:39.365Z,77.65
2023-02-23T18:01:07.309Z,77.97
2023-02-23T18:03:35.510Z,77.25
2023-02-23T18:06:06.774Z,76.57
2023-02-23T18:08:33.970Z,81.80
2023-02-23T18:11:00.617Z,82.67
2023-02-23T18:13:28.542Z,79.43
2023-02-23T18:16:00.021Z,82.63
2023-02-23T18:18:26.978Z,79.47
2023-02-23T18:20:59.608Z,73.47
2023-02-23T18:23:35.797Z,75.17
2023-02-23T18:26:07.474Z,77.28
2023-02-23T18:28:34.891Z,77.32
2023-02-23T18:31:02.373Z,73.50
2023-02-23T18:33:28.957Z,75.85
2023-02-23T18:35:55.583Z,77.07
2023-02-23T18:38:22.303Z,75.70
2023-02-23T18:40:48.970Z,68.55
2023-02-23T18:43:15.868Z,75.78
2023-02-23T18:45:43.198Z,76.72
2023-02-23T18:48:13.373Z,70.07
2023-02-23T18:50:41.187Z,69.82
2023-02-23T18:53:10.790Z,71.28
2023-02-23T18:55:38.521Z,67.63
2023-02-23T18:58:05.759Z,66.00
2023-02-23T19:00:39.893Z,62.85
2023-02-23T19:03:07.194Z,63.05
2023-02-23T19:05:36.051Z,62.55
2023-02-23T19:08:13.406Z,66.13
2023-02-23T19:10:40.713Z,62.25
2023-02-23T19:13:08.944Z,62.80
2023-02-23T19:15:36.755Z,58.42
2023-02-23T19:18:03.980Z,60.65
2023-02-23T19:20:32.763Z,58.78
2023-02-23T19:22:59.440Z,55.97
2023-02-23T19:25:26.063Z,57.53
2023-02-23T19:27:53.495Z,49.65
2023-02-23T19:30:20.172Z,45.65
2023-02-23T19:32:46.966Z,44.97
2023-02-23T19:35:14.997Z,34.88
2023-02-23T19:37:48.551Z,39.83
2023-02-23T19:40:19.411Z,35.83
2023-02-23T19:42:47.543Z,40.40
2023-02-23T19:45:14.635Z,39.80
2023-02-23T19:47:41.772Z,40.65
2023-02-23T19:50:10.389Z,45.47
2023-02-23T19:52:38.914Z,38.03
2023-02-23T19:55:06.884Z,37.08
2023-02-23T19:57:33.536Z,39.97
2023-02-23T20:00:00.166Z,47.15
2023-02-23T20:02:26.778Z,45.58
2023-02-23T20:04:53.302Z,42.45
2023-02-23T20:07:20.316Z,44.40
2023-02-23T20:09:46.865Z,50.03
2023-02-23T20:12:14.111Z,56.88
2023-02-23T20:14:41.477Z,50.67
2023-02-23T20:17:09.198Z,52.63
2023-02-23T20:19:35.810Z,54.28
2023-02-23T20:22:02.424Z,47.97
2023-02-23T20:24:29.112Z,51.40
2023-02-23T20:26:58.161Z,58.00
2023-02-23T20:29:28.009Z,58.38
2023-02-23T20:31:54.918Z,61.78
2023-02-23T20:34:24.698Z,60.67
2023-02-23T20:36:52.195Z,58.17
2023-02-23T20:39:19.294Z,63.22
2023-02-23T20:41:47.685Z,63.33
2023-02-23T20:44:15.861Z,63.40
2023-02-23T20:46:43.742Z,58.00
2023-02-23T20:49:11.659Z,62.05
2023-02-23T20:51:42.770Z,65.78
2023-02-23T20:54:11.137Z,59.72
2023-02-23T20:56:39.899Z,68.60
2023-02-23T20:59:11.090Z,68.10
2023-02-23T21:01:42.355Z,70.10
2023-02-23T21:04:09.169Z,62.83
2023-02-23T21:06:35.860Z,68.20
2023-02-23T21:09:17.773Z,63.58
2023-02-23T21:11:45.219Z,64.45
2023-02-23T21:14:12.437Z,60.10
2023-02-23T21:16:45.229Z,66.53
2023-02-23T21:19:14.000Z,61.97
2023-02-23T21:21:42.722Z,67.90
2023-02-23T21:24:10.850Z,71.57
2023-02-23T21:26:38.082Z,68.68
2023-02-23T21:29:10.455Z,69.40
2023-02-23T21:31:39.220Z,67.93
2023-02-23T21:34:06.461Z,71.40
2023-02-23T21:36:33.647Z,74.32
2023-02-23T21:39:01.066Z,70.00
2023-02-23T21:41:33.730Z,75.65
2023-02-23T21:44:01.610Z,64.32
2023-02-23T21:46:28.929Z,78.80
2023-02-23T21:48:55.676Z,74.53
2023-02-23T21:51:22.661Z,72.32
2023-02-23T21:53:49.499Z,71.45
2023-02-23T21:56:21.207Z,70.32
2023-02-23T21:58:56.006Z,69.50
2023-02-23T22:01:26.280Z,67.88
2023-02-23T22:03:54.846Z,66.55
2023-02-23T22:06:27.609Z,68.38
2023-02-23T22:08:55.149Z,62.22
2023-02-23T22:11:26.829Z,68.28
2023-02-23T22:13:59.325Z,65.40
2023-02-23T22:16:37.917Z,70.68
2023-02-23T22:19:06.105Z,58.92
2023-02-23T22:21:35.702Z,57.17
2023-02-23T22:24:05.298Z,67.82
2023-02-23T22:26:37.489Z,66.72
2023-02-23T22:29:05.720Z,59.92
2023-02-23T22:31:32.588Z,68.45
2023-02-23T22:33:59.491Z,62.97
2023-02-23T22:36:26.191Z,58.40
2023-02-23T22:38:52.863Z,61.10
2023-02-23T22:41:19.788Z,56.72
2023-02-23T22:43:46.917Z,55.40
2023-02-23T22:46:16.187Z,61.58
2023-02-23T22:48:47.126Z,55.28
2023-02-23T22:51:15.903Z,59.08
2023-02-23T22:53:45.516Z,52.67
2023-02-23T22:56:12.192Z,55.25
2023-02-23T22:58:42.120Z,56.88
2023-02-23T23:01:11.537Z,59.38
2023-02-23T23:03:41.469Z,64.75
2023-02-23T23:06:16.407Z,51.45
2023-02-23T23:08:45.464Z,52.67
2023-02-23T23:11:18.723Z,57.35
2023-02-23T23:13:50.882Z,53.83
2023-02-23T23:16:31.471Z,62.65
2023-02-23T23:19:23.757Z,59.50
2023-02-23T23:21:54.939Z,53.60
2023-02-23T23:24:22.554Z,60.10
2023-02-23T23:26:55.793Z,54.22
2023-02-23T23:29:23.663Z,55.25
2023-02-23T23:31:51.667Z,54.28
2023-02-23T23:34:21.895Z,55.13
2023-02-23T23:36:50.027Z,50.22
2023-02-23T23:39:18.685Z,50.50
2023-02-23T23:41:47.889Z,53.42
2023-02-23T23:44:28.877Z,47.30
2023-02-23T23:46:56.847Z,50.33
2023-02-23T23:49:27.295Z,53.25
2023-02-23T23:51:57.347Z,51.17
2023-02-23T23:54:30.930Z,50.80
2023-02-23T23:57:01.289Z,52.78
2023-02-23T23:59:28.519Z,49.07
